Carnival Freedom — 3EBL5 — position and weather

sailwx.info

Track history (hours):
 
Tides and Currents Weather Stations Pressure Air Temp Water Temp Dewpoint Dewpoint Depression Visibility Wind Speed Wind Dir Waves Ship Positions

Carnival Freedom

Last reported at 2019-Feb-16 08:24 UTC. Time now 2019-Feb-23 17:49 UTC.
Position N 26°15' W 079°23'.

Type: Ship. MMSI: 371154000.

Date/timePositionNaut miles runAvg speedWind from/ knotsBaromVisibWave heightAir tempDewpointWater temp
2019-Feb-16 08:24N 26°15' W 079°23'615.2
2019-Feb-16 08:00N 26°09' W 079°26'815.8
2019-Feb-16 07:30N 26°02' W 079°30'816.0
2019-Feb-16 07:00N 25°55' W 079°33'816.3
2019-Feb-16 06:30N 25°47' W 079°37'816.1
2019-Feb-16 06:00N 25°40' W 079°39'816.3
2019-Feb-16 05:30N 25°31' W 079°39'26215.0
2019-Feb-15 12:00N 24°24' W 084°18'41618.9 180 / 171013.910.8 21.012.222.0
2019-Feb-14 14:00N 27°18' W 091°18'10919.4 210 / 251017.910.8 19.0 1.420.0
2019-Feb-14 08:24N 28°17' W 093°01'818.7
2019-Feb-14 07:59N 28°22' W 093°08'918.5
2019-Feb-14 07:29N 28°27' W 093°17'918.5
2019-Feb-14 07:00N 28°32' W 093°25'918.6
2019-Feb-14 06:30N 28°38' W 093°34'918.5
2019-Feb-14 06:01N 28°43' W 093°42'918.3
2019-Feb-14 05:30N 28°48' W 093°51'918.3
2019-Feb-14 05:01N 28°54' W 093°59'816.7
2019-Feb-14 04:30N 28°59' W 094°07'815.5
2019-Feb-14 04:01N 29°03' W 094°14'1615.5
2019-Feb-14 03:00N 29°11' W 094°29'915.5
2019-Feb-14 02:24N 29°17' W 094°37'410.2
2019-Feb-14 02:00N 29°20' W 094°41'511.0
2019-Feb-14 01:31N 29°19' W 094°47'1 1.6
2019-Feb-14 00:34N 29°19' W 094°48'0 0.0
2019-Feb-14 00:28N 29°19' W 094°48'0 0.0
2019-Feb-13 23:04N 29°19' W 094°48'0 0.0
2019-Feb-13 22:52N 29°19' W 094°48'0 0.0
2019-Feb-13 21:48N 29°19' W 094°48'0 0.0
2019-Feb-13 21:18N 29°19' W 094°48'0 0.0
2019-Feb-13 20:00N 29°19' W 094°48'0 0.0
2019-Feb-13 17:18N 29°19' W 094°48'0 0.0
2019-Feb-13 17:00N 29°19' W 094°48'0 0.0
2019-Feb-13 16:30N 29°19' W 094°48'0 0.0
2019-Feb-13 16:00N 29°19' W 094°48'0 0.0
2019-Feb-13 14:20N 29°19' W 094°48'0 0.0
2019-Feb-13 14:00N 29°19' W 094°48'0 0.0
2019-Feb-13 13:31N 29°19' W 094°48'0 0.3
2019-Feb-13 13:00N 29°19' W 094°48'4 7.2
2019-Feb-13 12:30N 29°21' W 094°45'714.4
2019-Feb-13 12:00N 29°18' W 094°37'510.9
2019-Feb-13 11:31N 29°15' W 094°32'45520.2
2019-Feb-12 13:00N 24°12' W 088°12'22319.2 140 / 101013.910.8 25.022.026.0
2019-Feb-12 01:23N 20°41' W 086°53'821.2
2019-Feb-12 01:00N 20°35' W 086°58'611.8
2019-Feb-12 00:30N 20°29' W 086°59'0 0.2
2019-Feb-11 23:58N 20°29' W 086°59'0 0.0
2019-Feb-11 23:28N 20°29' W 086°59'0 0.0
2019-Feb-11 22:58N 20°29' W 086°59'0 0.0
2019-Feb-11 22:28N 20°29' W 086°59'0 0.0
2019-Feb-11 21:58N 20°29' W 086°59'0 0.0
2019-Feb-11 21:22N 20°29' W 086°59'0 0.0
2019-Feb-11 21:00N 20°29' W 086°59'0 0.0
2019-Feb-11 20:30N 20°29' W 086°59'0 0.0
2019-Feb-11 20:00N 20°29' W 086°59'0 0.0
2019-Feb-11 19:30N 20°29' W 086°59'0 0.0
2019-Feb-11 19:00N 20°29' W 086°59'0 0.0
2019-Feb-11 18:30N 20°29' W 086°59'0 0.0
2019-Feb-11 18:00N 20°29' W 086°59'0 0.0
2019-Feb-11 17:27N 20°29' W 086°59'0 0.0
2019-Feb-11 16:57N 20°29' W 086°59'0 0.0
2019-Feb-11 16:30N 20°29' W 086°59'0 0.0
2019-Feb-11 15:57N 20°29' W 086°59'0 0.0
2019-Feb-11 15:31N 20°29' W 086°59'0 0.0
2019-Feb-11 15:00N 20°29' W 086°59'1 1.6
2019-Feb-11 14:31N 20°29' W 086°59'5 9.2
2019-Feb-11 14:01N 20°34' W 086°59'712.9
2019-Feb-11 13:30N 20°39' W 086°55'43217.6
2019-Feb-10 13:00N 26°42' W 091°12'19219.1 120 / 251021.910.8 21.014.222.0
2019-Feb-10 02:59N 28°50' W 093°53'1717.6
2019-Feb-10 02:00N 29°00' W 094°09'2116.9
2019-Feb-10 00:46N 29°11' W 094°29'1115.4
2019-Feb-10 00:04N 29°19' W 094°38'213.4
2019-Feb-09 23:55N 29°20' W 094°40'613.7
2019-Feb-09 23:31N 29°20' W 094°46'2 3.8
2019-Feb-09 22:58N 29°19' W 094°48'0 0.0
2019-Feb-09 22:25N 29°19' W 094°48'0 0.0
2019-Feb-09 21:58N 29°19' W 094°48'0 0.0
2019-Feb-09 21:22N 29°19' W 094°48'0 0.0
2019-Feb-09 20:58N 29°19' W 094°48'0 0.0
2019-Feb-09 20:28N 29°19' W 094°48'0 0.0
2019-Feb-09 19:58N 29°19' W 094°48'0 0.0
2019-Feb-09 19:25N 29°19' W 094°48'0 0.0
2019-Feb-09 18:58N 29°19' W 094°48'0 0.0
2019-Feb-09 18:25N 29°19' W 094°48'0 0.0
2019-Feb-09 17:58N 29°19' W 094°48'0 0.0
2019-Feb-09 17:28N 29°19' W 094°48'0 0.0
2019-Feb-09 16:58N 29°19' W 094°48'0 0.0
2019-Feb-09 16:28N 29°19' W 094°48'0 0.0
2019-Feb-09 15:58N 29°19' W 094°48'0 0.0
2019-Feb-09 15:28N 29°19' W 094°48'0 0.0
2019-Feb-09 14:58N 29°19' W 094°48'0 0.0
2019-Feb-09 14:28N 29°19' W 094°48'0 0.0
2019-Feb-09 13:58N 29°19' W 094°48'0 1.1
2019-Feb-09 13:30N 29°19' W 094°47'1 2.5
2019-Feb-09 13:00N 29°20' W 094°47'612.3
2019-Feb-09 12:30N 29°19' W 094°39'814.4
2019-Feb-09 11:57N 29°15' W 094°32'612.7
2019-Feb-09 11:29N 29°12' W 094°27'712.9
2019-Feb-09 10:56N 29°08' W 094°19'1015.7
2019-Feb-09 10:19N 29°02' W 094°10'916.1
2019-Feb-09 09:45N 28°57' W 094°02'916.4
2019-Feb-09 09:14N 28°52' W 093°54'616.4
2019-Feb-09 08:51N 28°48' W 093°49'917.8
2019-Feb-09 08:21N 28°43' W 093°40'1318.8
2019-Feb-09 07:39N 28°35' W 093°28'35419.0
2019-Feb-08 13:00N 24°30' W 088°42'46919.5 060 / 201019.910.8 24.017.725.0
2019-Feb-07 13:00N 20°00' W 081°48'   080 / 301015.910.8 24.013.927.0
Track history (hours):
 
Tides and Currents Weather Stations Pressure Air Temp Water Temp Dewpoint Dewpoint Depression Visibility Wind Speed Wind Dir Waves Ship Positions

Carnival Freedom

Last reported at 2019-Feb-16 08:24 UTC. Time now 2019-Feb-23 17:49 UTC.
Position N 26°15' W 079°23'.

Type: Ship. MMSI: 371154000.

Date/timePositionNaut miles runAvg speedWind from/ knotsBaromVisibWave heightAir tempDewpointWater temp
2019-Feb-16 08:24N 26°15' W 079°23'615.2
2019-Feb-16 08:00N 26°09' W 079°26'815.8
2019-Feb-16 07:30N 26°02' W 079°30'816.0
2019-Feb-16 07:00N 25°55' W 079°33'816.3
2019-Feb-16 06:30N 25°47' W 079°37'816.1
2019-Feb-16 06:00N 25°40' W 079°39'816.3
2019-Feb-16 05:30N 25°31' W 079°39'26215.0
2019-Feb-15 12:00N 24°24' W 084°18'41618.9 180 / 171013.910.8 21.012.222.0
2019-Feb-14 14:00N 27°18' W 091°18'10919.4 210 / 251017.910.8 19.0 1.420.0
2019-Feb-14 08:24N 28°17' W 093°01'818.7
2019-Feb-14 07:59N 28°22' W 093°08'918.5
2019-Feb-14 07:29N 28°27' W 093°17'918.5
2019-Feb-14 07:00N 28°32' W 093°25'918.6
2019-Feb-14 06:30N 28°38' W 093°34'918.5
2019-Feb-14 06:01N 28°43' W 093°42'918.3
2019-Feb-14 05:30N 28°48' W 093°51'918.3
2019-Feb-14 05:01N 28°54' W 093°59'816.7
2019-Feb-14 04:30N 28°59' W 094°07'815.5
2019-Feb-14 04:01N 29°03' W 094°14'1615.5
2019-Feb-14 03:00N 29°11' W 094°29'915.5
2019-Feb-14 02:24N 29°17' W 094°37'410.2
2019-Feb-14 02:00N 29°20' W 094°41'511.0
2019-Feb-14 01:31N 29°19' W 094°47'1 1.6
2019-Feb-14 00:34N 29°19' W 094°48'0 0.0
2019-Feb-14 00:28N 29°19' W 094°48'0 0.0
2019-Feb-13 23:04N 29°19' W 094°48'0 0.0
2019-Feb-13 22:52N 29°19' W 094°48'0 0.0
2019-Feb-13 21:48N 29°19' W 094°48'0 0.0
2019-Feb-13 21:18N 29°19' W 094°48'0 0.0
2019-Feb-13 20:00N 29°19' W 094°48'0 0.0
2019-Feb-13 17:18N 29°19' W 094°48'0 0.0
2019-Feb-13 17:00N 29°19' W 094°48'0 0.0
2019-Feb-13 16:30N 29°19' W 094°48'0 0.0
2019-Feb-13 16:00N 29°19' W 094°48'0 0.0
2019-Feb-13 14:20N 29°19' W 094°48'0 0.0
2019-Feb-13 14:00N 29°19' W 094°48'0 0.0
2019-Feb-13 13:31N 29°19' W 094°48'0 0.3
2019-Feb-13 13:00N 29°19' W 094°48'4 7.2
2019-Feb-13 12:30N 29°21' W 094°45'714.4
2019-Feb-13 12:00N 29°18' W 094°37'510.9
2019-Feb-13 11:31N 29°15' W 094°32'45520.2
2019-Feb-12 13:00N 24°12' W 088°12'22319.2 140 / 101013.910.8 25.022.026.0
2019-Feb-12 01:23N 20°41' W 086°53'821.2
2019-Feb-12 01:00N 20°35' W 086°58'611.8
2019-Feb-12 00:30N 20°29' W 086°59'0 0.2
2019-Feb-11 23:58N 20°29' W 086°59'0 0.0
2019-Feb-11 23:28N 20°29' W 086°59'0 0.0
2019-Feb-11 22:58N 20°29' W 086°59'0 0.0
2019-Feb-11 22:28N 20°29' W 086°59'0 0.0
2019-Feb-11 21:58N 20°29' W 086°59'0 0.0
2019-Feb-11 21:22N 20°29' W 086°59'0 0.0
2019-Feb-11 21:00N 20°29' W 086°59'0 0.0
2019-Feb-11 20:30N 20°29' W 086°59'0 0.0
2019-Feb-11 20:00N 20°29' W 086°59'0 0.0
2019-Feb-11 19:30N 20°29' W 086°59'0 0.0
2019-Feb-11 19:00N 20°29' W 086°59'0 0.0
2019-Feb-11 18:30N 20°29' W 086°59'0 0.0
2019-Feb-11 18:00N 20°29' W 086°59'0 0.0
2019-Feb-11 17:27N 20°29' W 086°59'0 0.0
2019-Feb-11 16:57N 20°29' W 086°59'0 0.0
2019-Feb-11 16:30N 20°29' W 086°59'0 0.0
2019-Feb-11 15:57N 20°29' W 086°59'0 0.0
2019-Feb-11 15:31N 20°29' W 086°59'0 0.0
2019-Feb-11 15:00N 20°29' W 086°59'1 1.6
2019-Feb-11 14:31N 20°29' W 086°59'5 9.2
2019-Feb-11 14:01N 20°34' W 086°59'712.9
2019-Feb-11 13:30N 20°39' W 086°55'43217.6
2019-Feb-10 13:00N 26°42' W 091°12'19219.1 120 / 251021.910.8 21.014.222.0
2019-Feb-10 02:59N 28°50' W 093°53'1717.6
2019-Feb-10 02:00N 29°00' W 094°09'2116.9
2019-Feb-10 00:46N 29°11' W 094°29'1115.4
2019-Feb-10 00:04N 29°19' W 094°38'213.4
2019-Feb-09 23:55N 29°20' W 094°40'613.7
2019-Feb-09 23:31N 29°20' W 094°46'2 3.8
2019-Feb-09 22:58N 29°19' W 094°48'0 0.0
2019-Feb-09 22:25N 29°19' W 094°48'0 0.0
2019-Feb-09 21:58N 29°19' W 094°48'0 0.0
2019-Feb-09 21:22N 29°19' W 094°48'0 0.0
2019-Feb-09 20:58N 29°19' W 094°48'0 0.0
2019-Feb-09 20:28N 29°19' W 094°48'0 0.0
2019-Feb-09 19:58N 29°19' W 094°48'0 0.0
2019-Feb-09 19:25N 29°19' W 094°48'0 0.0
2019-Feb-09 18:58N 29°19' W 094°48'0 0.0
2019-Feb-09 18:25N 29°19' W 094°48'0 0.0
2019-Feb-09 17:58N 29°19' W 094°48'0 0.0
2019-Feb-09 17:28N 29°19' W 094°48'0 0.0
2019-Feb-09 16:58N 29°19' W 094°48'0 0.0
2019-Feb-09 16:28N 29°19' W 094°48'0 0.0
2019-Feb-09 15:58N 29°19' W 094°48'0 0.0
2019-Feb-09 15:28N 29°19' W 094°48'0 0.0
2019-Feb-09 14:58N 29°19' W 094°48'0 0.0
2019-Feb-09 14:28N 29°19' W 094°48'0 0.0
2019-Feb-09 13:58N 29°19' W 094°48'0 1.1
2019-Feb-09 13:30N 29°19' W 094°47'1 2.5
2019-Feb-09 13:00N 29°20' W 094°47'612.3
2019-Feb-09 12:30N 29°19' W 094°39'814.4
2019-Feb-09 11:57N 29°15' W 094°32'612.7
2019-Feb-09 11:29N 29°12' W 094°27'712.9
2019-Feb-09 10:56N 29°08' W 094°19'1015.7
2019-Feb-09 10:19N 29°02' W 094°10'916.1
2019-Feb-09 09:45N 28°57' W 094°02'916.4
2019-Feb-09 09:14N 28°52' W 093°54'616.4
2019-Feb-09 08:51N 28°48' W 093°49'917.8
2019-Feb-09 08:21N 28°43' W 093°40'1318.8
2019-Feb-09 07:39N 28°35' W 093°28'35419.0
2019-Feb-08 13:00N 24°30' W 088°42'46919.5 060 / 201019.910.8 24.017.725.0
2019-Feb-07 13:00N 20°00' W 081°48'   080 / 301015.910.8 24.013.927.0

Dump ship's entire track history